sensor_id;sensor_type;location;lat;lon;timestamp;P1;durP1;ratioP1;P2;durP2;ratioP2
17214;SDS011;8723;51.502;6.918;2023-02-12T00:01:50;43.85;;;38.13;;
17214;SDS011;8723;51.502;6.918;2023-02-12T00:04:17;47.55;;;41.53;;
17214;SDS011;8723;51.502;6.918;2023-02-12T00:06:44;47.80;;;41.17;;
17214;SDS011;8723;51.502;6.918;2023-02-12T00:09:13;43.08;;;37.10;;
17214;SDS011;8723;51.502;6.918;2023-02-12T00:11:40;50.50;;;44.03;;
17214;SDS011;8723;51.502;6.918;2023-02-12T00:14:07;41.90;;;37.40;;
17214;SDS011;8723;51.502;6.918;2023-02-12T00:16:34;48.00;;;40.80;;
17214;SDS011;8723;51.502;6.918;2023-02-12T00:19:01;45.83;;;39.67;;
17214;SDS011;8723;51.502;6.918;2023-02-12T00:21:29;51.03;;;44.07;;
17214;SDS011;8723;51.502;6.918;2023-02-12T00:23:56;58.78;;;47.58;;
17214;SDS011;8723;51.502;6.918;2023-02-12T00:26:25;51.73;;;42.53;;
17214;SDS011;8723;51.502;6.918;2023-02-12T00:28:52;33.85;;;30.20;;
17214;SDS011;8723;51.502;6.918;2023-02-12T00:31:20;53.57;;;46.07;;
17214;SDS011;8723;51.502;6.918;2023-02-12T00:33:48;38.80;;;34.20;;
17214;SDS011;8723;51.502;6.918;2023-02-12T00:36:16;37.38;;;33.35;;
17214;SDS011;8723;51.502;6.918;2023-02-12T00:38:44;52.30;;;46.08;;
17214;SDS011;8723;51.502;6.918;2023-02-12T00:41:11;40.97;;;35.42;;
17214;SDS011;8723;51.502;6.918;2023-02-12T00:43:40;47.08;;;40.85;;
17214;SDS011;8723;51.502;6.918;2023-02-12T00:46:07;44.42;;;39.20;;
17214;SDS011;8723;51.502;6.918;2023-02-12T00:48:34;32.40;;;28.92;;
17214;SDS011;8723;51.502;6.918;2023-02-12T00:51:02;49.47;;;43.42;;
17214;SDS011;8723;51.502;6.918;2023-02-12T00:53:29;51.03;;;43.25;;
17214;SDS011;8723;51.502;6.918;2023-02-12T00:55:56;51.28;;;44.65;;
17214;SDS011;8723;51.502;6.918;2023-02-12T00:58:24;43.95;;;39.15;;
17214;SDS011;8723;51.502;6.918;2023-02-12T01:00:52;48.42;;;41.75;;
17214;SDS011;8723;51.502;6.918;2023-02-12T01:03:20;45.53;;;40.17;;
17214;SDS011;8723;51.502;6.918;2023-02-12T01:05:47;50.47;;;44.70;;
17214;SDS011;8723;51.502;6.918;2023-02-12T01:08:14;54.13;;;46.65;;
17214;SDS011;8723;51.502;6.918;2023-02-12T01:10:42;45.67;;;38.65;;
17214;SDS011;8723;51.502;6.918;2023-02-12T01:13:10;55.03;;;46.30;;
17214;SDS011;8723;51.502;6.918;2023-02-12T01:15:37;47.95;;;40.65;;
17214;SDS011;8723;51.502;6.918;2023-02-12T01:18:06;45.13;;;39.08;;
17214;SDS011;8723;51.502;6.918;2023-02-12T01:20:33;48.08;;;42.83;;
17214;SDS011;8723;51.502;6.918;2023-02-12T01:23:00;54.80;;;45.47;;
17214;SDS011;8723;51.502;6.918;2023-02-12T01:25:31;45.90;;;38.67;;
17214;SDS011;8723;51.502;6.918;2023-02-12T01:27:58;47.05;;;40.38;;
17214;SDS011;8723;51.502;6.918;2023-02-12T01:30:25;53.55;;;45.60;;
17214;SDS011;8723;51.502;6.918;2023-02-12T01:32:52;49.05;;;41.65;;
17214;SDS011;8723;51.502;6.918;2023-02-12T01:35:20;54.63;;;45.28;;
17214;SDS011;8723;51.502;6.918;2023-02-12T01:37:48;52.00;;;45.50;;
17214;SDS011;8723;51.502;6.918;2023-02-12T01:40:15;54.35;;;44.92;;
17214;SDS011;8723;51.502;6.918;2023-02-12T01:42:43;54.13;;;46.53;;
17214;SDS011;8723;51.502;6.918;2023-02-12T01:47:58;58.53;;;51.28;;
17214;SDS011;8723;51.502;6.918;2023-02-12T01:50:27;61.40;;;49.13;;
17214;SDS011;8723;51.502;6.918;2023-02-12T01:52:54;41.00;;;36.53;;
17214;SDS011;8723;51.502;6.918;2023-02-12T01:55:23;47.97;;;41.33;;
17214;SDS011;8723;51.502;6.918;2023-02-12T01:57:51;45.33;;;40.03;;
17214;SDS011;8723;51.502;6.918;2023-02-12T02:00:20;48.40;;;41.10;;
17214;SDS011;8723;51.502;6.918;2023-02-12T02:02:49;50.33;;;42.50;;
17214;SDS011;8723;51.502;6.918;2023-02-12T02:05:19;47.45;;;40.70;;
17214;SDS011;8723;51.502;6.918;2023-02-12T02:07:50;45.60;;;39.25;;
17214;SDS011;8723;51.502;6.918;2023-02-12T02:10:18;45.10;;;38.73;;
17214;SDS011;8723;51.502;6.918;2023-02-12T02:12:45;52.67;;;43.83;;
17214;SDS011;8723;51.502;6.918;2023-02-12T02:15:30;48.85;;;42.47;;
17214;SDS011;8723;51.502;6.918;2023-02-12T02:17:58;54.92;;;45.25;;
17214;SDS011;8723;51.502;6.918;2023-02-12T02:23:27;50.50;;;43.58;;
17214;SDS011;8723;51.502;6.918;2023-02-12T02:26:09;52.93;;;44.30;;
17214;SDS011;8723;51.502;6.918;2023-02-12T02:28:49;48.70;;;41.77;;
17214;SDS011;8723;51.502;6.918;2023-02-12T02:31:21;47.75;;;39.80;;
17214;SDS011;8723;51.502;6.918;2023-02-12T02:33:53;41.60;;;36.35;;
17214;SDS011;8723;51.502;6.918;2023-02-12T02:36:22;50.85;;;43.17;;
17214;SDS011;8723;51.502;6.918;2023-02-12T02:38:52;48.78;;;41.20;;
17214;SDS011;8723;51.502;6.918;2023-02-12T02:41:24;51.58;;;44.78;;
17214;SDS011;8723;51.502;6.918;2023-02-12T02:43:54;49.17;;;41.33;;
17214;SDS011;8723;51.502;6.918;2023-02-12T02:46:24;48.80;;;42.10;;
17214;SDS011;8723;51.502;6.918;2023-02-12T02:48:55;50.65;;;42.38;;
17214;SDS011;8723;51.502;6.918;2023-02-12T02:51:24;48.90;;;42.42;;
17214;SDS011;8723;51.502;6.918;2023-02-12T02:53:54;44.28;;;37.38;;
17214;SDS011;8723;51.502;6.918;2023-02-12T02:56:23;49.75;;;43.17;;
17214;SDS011;8723;51.502;6.918;2023-02-12T02:58:52;41.10;;;35.67;;
17214;SDS011;8723;51.502;6.918;2023-02-12T03:01:21;40.83;;;33.80;;
17214;SDS011;8723;51.502;6.918;2023-02-12T03:03:50;39.90;;;35.45;;
17214;SDS011;8723;51.502;6.918;2023-02-12T03:06:21;48.75;;;40.50;;
17214;SDS011;8723;51.502;6.918;2023-02-12T03:08:51;47.72;;;40.78;;
17214;SDS011;8723;51.502;6.918;2023-02-12T03:11:21;51.92;;;43.67;;
17214;SDS011;8723;51.502;6.918;2023-02-12T03:13:50;46.78;;;41.47;;
17214;SDS011;8723;51.502;6.918;2023-02-12T03:16:19;50.38;;;41.72;;
17214;SDS011;8723;51.502;6.918;2023-02-12T03:18:48;49.30;;;42.63;;
17214;SDS011;8723;51.502;6.918;2023-02-12T03:21:19;52.28;;;44.22;;
17214;SDS011;8723;51.502;6.918;2023-02-12T03:23:50;46.75;;;40.35;;
17214;SDS011;8723;51.502;6.918;2023-02-12T03:26:20;43.75;;;36.22;;
17214;SDS011;8723;51.502;6.918;2023-02-12T03:28:48;36.92;;;31.65;;
17214;SDS011;8723;51.502;6.918;2023-02-12T03:31:18;43.85;;;36.88;;
17214;SDS011;8723;51.502;6.918;2023-02-12T03:33:49;41.35;;;35.63;;
17214;SDS011;8723;51.502;6.918;2023-02-12T03:36:22;50.28;;;41.55;;
17214;SDS011;8723;51.502;6.918;2023-02-12T03:38:52;51.03;;;42.80;;
17214;SDS011;8723;51.502;6.918;2023-02-12T03:41:23;45.53;;;36.95;;
17214;SDS011;8723;51.502;6.918;2023-02-12T03:43:52;46.05;;;40.30;;
17214;SDS011;8723;51.502;6.918;2023-02-12T03:46:21;48.08;;;42.10;;
17214;SDS011;8723;51.502;6.918;2023-02-12T03:48:55;50.42;;;44.17;;
17214;SDS011;8723;51.502;6.918;2023-02-12T03:51:25;49.97;;;42.30;;
17214;SDS011;8723;51.502;6.918;2023-02-12T03:53:55;52.45;;;43.75;;
17214;SDS011;8723;51.502;6.918;2023-02-12T03:56:23;57.10;;;47.27;;
17214;SDS011;8723;51.502;6.918;2023-02-12T03:58:51;53.55;;;45.08;;
17214;SDS011;8723;51.502;6.918;2023-02-12T04:01:18;52.30;;;43.97;;
17214;SDS011;8723;51.502;6.918;2023-02-12T04:03:45;57.67;;;47.90;;
17214;SDS011;8723;51.502;6.918;2023-02-12T04:06:19;47.42;;;39.47;;
17214;SDS011;8723;51.502;6.918;2023-02-12T04:08:48;52.80;;;43.30;;
17214;SDS011;8723;51.502;6.918;2023-02-12T04:11:19;52.45;;;44.25;;
17214;SDS011;8723;51.502;6.918;2023-02-12T04:13:50;49.85;;;41.17;;
17214;SDS011;8723;51.502;6.918;2023-02-12T04:16:21;51.60;;;44.10;;
17214;SDS011;8723;51.502;6.918;2023-02-12T04:18:51;39.28;;;33.78;;
17214;SDS011;8723;51.502;6.918;2023-02-12T04:21:21;52.30;;;42.25;;
17214;SDS011;8723;51.502;6.918;2023-02-12T04:23:55;63.43;;;51.63;;
17214;SDS011;8723;51.502;6.918;2023-02-12T04:26:25;59.87;;;47.07;;
17214;SDS011;8723;51.502;6.918;2023-02-12T04:29:04;47.80;;;40.43;;
17214;SDS011;8723;51.502;6.918;2023-02-12T04:31:35;44.27;;;36.97;;
17214;SDS011;8723;51.502;6.918;2023-02-12T04:34:06;55.08;;;45.00;;
17214;SDS011;8723;51.502;6.918;2023-02-12T04:36:35;60.20;;;50.80;;
17214;SDS011;8723;51.502;6.918;2023-02-12T04:39:07;63.00;;;51.28;;
17214;SDS011;8723;51.502;6.918;2023-02-12T04:41:36;60.10;;;50.60;;
17214;SDS011;8723;51.502;6.918;2023-02-12T04:44:13;54.17;;;45.50;;
17214;SDS011;8723;51.502;6.918;2023-02-12T04:46:40;59.17;;;48.10;;
17214;SDS011;8723;51.502;6.918;2023-02-12T04:49:08;52.05;;;43.47;;
17214;SDS011;8723;51.502;6.918;2023-02-12T04:51:39;57.75;;;48.40;;
17214;SDS011;8723;51.502;6.918;2023-02-12T04:54:07;43.75;;;35.92;;
17214;SDS011;8723;51.502;6.918;2023-02-12T04:56:34;57.92;;;46.47;;
17214;SDS011;8723;51.502;6.918;2023-02-12T04:59:01;63.25;;;49.78;;
17214;SDS011;8723;51.502;6.918;2023-02-12T05:01:29;55.88;;;46.55;;
17214;SDS011;8723;51.502;6.918;2023-02-12T05:03:56;39.83;;;34.05;;
17214;SDS011;8723;51.502;6.918;2023-02-12T05:06:23;57.20;;;47.03;;
17214;SDS011;8723;51.502;6.918;2023-02-12T05:08:51;38.50;;;32.90;;
17214;SDS011;8723;51.502;6.918;2023-02-12T05:11:19;57.38;;;47.10;;
17214;SDS011;8723;51.502;6.918;2023-02-12T05:13:47;45.97;;;38.50;;
17214;SDS011;8723;51.502;6.918;2023-02-12T05:16:14;62.75;;;52.33;;
17214;SDS011;8723;51.502;6.918;2023-02-12T05:18:42;57.00;;;46.60;;
17214;SDS011;8723;51.502;6.918;2023-02-12T05:21:09;60.35;;;48.78;;
17214;SDS011;8723;51.502;6.918;2023-02-12T05:23:37;50.97;;;42.22;;
17214;SDS011;8723;51.502;6.918;2023-02-12T05:26:04;47.90;;;40.67;;
17214;SDS011;8723;51.502;6.918;2023-02-12T05:28:33;59.97;;;47.75;;
17214;SDS011;8723;51.502;6.918;2023-02-12T05:31:00;63.00;;;49.45;;
17214;SDS011;8723;51.502;6.918;2023-02-12T05:33:28;60.17;;;49.80;;
17214;SDS011;8723;51.502;6.918;2023-02-12T05:35:55;53.15;;;42.13;;
17214;SDS011;8723;51.502;6.918;2023-02-12T05:38:22;52.67;;;43.50;;
17214;SDS011;8723;51.502;6.918;2023-02-12T05:40:49;48.25;;;40.13;;
17214;SDS011;8723;51.502;6.918;2023-02-12T05:43:16;44.60;;;36.63;;
17214;SDS011;8723;51.502;6.918;2023-02-12T05:45:45;56.50;;;45.78;;
17214;SDS011;8723;51.502;6.918;2023-02-12T05:48:12;56.87;;;46.87;;
17214;SDS011;8723;51.502;6.918;2023-02-12T05:50:39;60.65;;;49.70;;
17214;SDS011;8723;51.502;6.918;2023-02-12T05:53:06;58.97;;;48.20;;
17214;SDS011;8723;51.502;6.918;2023-02-12T05:55:34;64.72;;;50.25;;
17214;SDS011;8723;51.502;6.918;2023-02-12T05:58:01;64.72;;;50.90;;
17214;SDS011;8723;51.502;6.918;2023-02-12T06:00:31;63.83;;;50.55;;
17214;SDS011;8723;51.502;6.918;2023-02-12T06:02:59;62.35;;;49.95;;
17214;SDS011;8723;51.502;6.918;2023-02-12T06:05:27;60.95;;;50.10;;
17214;SDS011;8723;51.502;6.918;2023-02-12T06:07:58;59.80;;;50.50;;
17214;SDS011;8723;51.502;6.918;2023-02-12T06:10:25;51.88;;;40.95;;
17214;SDS011;8723;51.502;6.918;2023-02-12T06:12:52;58.77;;;47.57;;
17214;SDS011;8723;51.502;6.918;2023-02-12T06:15:20;57.72;;;46.95;;
17214;SDS011;8723;51.502;6.918;2023-02-12T06:17:47;58.70;;;46.42;;
17214;SDS011;8723;51.502;6.918;2023-02-12T06:20:16;67.13;;;52.78;;
17214;SDS011;8723;51.502;6.918;2023-02-12T06:22:46;57.78;;;45.15;;
17214;SDS011;8723;51.502;6.918;2023-02-12T06:25:13;64.68;;;51.03;;
17214;SDS011;8723;51.502;6.918;2023-02-12T06:27:40;61.72;;;49.72;;
17214;SDS011;8723;51.502;6.918;2023-02-12T06:30:11;65.22;;;51.15;;
17214;SDS011;8723;51.502;6.918;2023-02-12T06:32:38;61.28;;;48.85;;
17214;SDS011;8723;51.502;6.918;2023-02-12T06:35:06;63.22;;;49.83;;
17214;SDS011;8723;51.502;6.918;2023-02-12T06:37:34;59.97;;;48.07;;
17214;SDS011;8723;51.502;6.918;2023-02-12T06:40:02;63.42;;;48.80;;
17214;SDS011;8723;51.502;6.918;2023-02-12T06:42:30;63.25;;;50.72;;
17214;SDS011;8723;51.502;6.918;2023-02-12T06:45:00;61.75;;;49.75;;
17214;SDS011;8723;51.502;6.918;2023-02-12T06:47:27;61.38;;;49.38;;
17214;SDS011;8723;51.502;6.918;2023-02-12T06:49:54;63.10;;;51.15;;
17214;SDS011;8723;51.502;6.918;2023-02-12T06:52:22;60.83;;;50.00;;
17214;SDS011;8723;51.502;6.918;2023-02-12T06:54:50;62.10;;;50.13;;
17214;SDS011;8723;51.502;6.918;2023-02-12T06:57:18;57.25;;;48.13;;
17214;SDS011;8723;51.502;6.918;2023-02-12T06:59:45;57.28;;;46.50;;
17214;SDS011;8723;51.502;6.918;2023-02-12T07:02:12;47.70;;;39.75;;
17214;SDS011;8723;51.502;6.918;2023-02-12T07:04:39;65.22;;;52.03;;
17214;SDS011;8723;51.502;6.918;2023-02-12T07:07:07;51.60;;;40.58;;
17214;SDS011;8723;51.502;6.918;2023-02-12T07:09:34;48.50;;;39.15;;
17214;SDS011;8723;51.502;6.918;2023-02-12T07:12:03;54.53;;;43.40;;
17214;SDS011;8723;51.502;6.918;2023-02-12T07:14:31;52.88;;;42.70;;
17214;SDS011;8723;51.502;6.918;2023-02-12T07:16:58;48.90;;;38.90;;
17214;SDS011;8723;51.502;6.918;2023-02-12T07:19:27;49.17;;;40.58;;
17214;SDS011;8723;51.502;6.918;2023-02-12T07:21:54;41.83;;;35.45;;
17214;SDS011;8723;51.502;6.918;2023-02-12T07:24:22;50.88;;;41.58;;
17214;SDS011;8723;51.502;6.918;2023-02-12T07:26:49;54.97;;;44.50;;
17214;SDS011;8723;51.502;6.918;2023-02-12T07:29:17;56.97;;;46.30;;
17214;SDS011;8723;51.502;6.918;2023-02-12T07:31:44;49.60;;;40.07;;
17214;SDS011;8723;51.502;6.918;2023-02-12T07:34:11;46.38;;;38.50;;
17214;SDS011;8723;51.502;6.918;2023-02-12T07:36:38;50.15;;;40.88;;
17214;SDS011;8723;51.502;6.918;2023-02-12T07:39:06;52.57;;;45.13;;
17214;SDS011;8723;51.502;6.918;2023-02-12T07:41:34;59.88;;;49.38;;
17214;SDS011;8723;51.502;6.918;2023-02-12T07:44:02;54.72;;;44.05;;
17214;SDS011;8723;51.502;6.918;2023-02-12T07:46:34;51.45;;;43.00;;
17214;SDS011;8723;51.502;6.918;2023-02-12T07:49:02;52.10;;;43.20;;
17214;SDS011;8723;51.502;6.918;2023-02-12T07:51:29;45.80;;;38.50;;
17214;SDS011;8723;51.502;6.918;2023-02-12T07:53:57;55.28;;;45.20;;
17214;SDS011;8723;51.502;6.918;2023-02-12T07:56:26;53.90;;;44.05;;
17214;SDS011;8723;51.502;6.918;2023-02-12T07:58:56;58.03;;;46.90;;
17214;SDS011;8723;51.502;6.918;2023-02-12T08:01:23;60.30;;;49.65;;
17214;SDS011;8723;51.502;6.918;2023-02-12T08:03:52;62.30;;;50.90;;
17214;SDS011;8723;51.502;6.918;2023-02-12T08:06:20;59.25;;;48.72;;
17214;SDS011;8723;51.502;6.918;2023-02-12T08:08:49;60.90;;;50.83;;
17214;SDS011;8723;51.502;6.918;2023-02-12T08:11:16;57.13;;;47.10;;
17214;SDS011;8723;51.502;6.918;2023-02-12T08:13:44;46.60;;;38.53;;
17214;SDS011;8723;51.502;6.918;2023-02-12T08:16:12;51.25;;;40.88;;
17214;SDS011;8723;51.502;6.918;2023-02-12T08:18:39;58.10;;;48.63;;
17214;SDS011;8723;51.502;6.918;2023-02-12T08:21:08;49.50;;;41.58;;
17214;SDS011;8723;51.502;6.918;2023-02-12T08:23:36;56.47;;;46.25;;
17214;SDS011;8723;51.502;6.918;2023-02-12T08:26:04;58.87;;;48.10;;
17214;SDS011;8723;51.502;6.918;2023-02-12T08:28:31;64.43;;;52.92;;
17214;SDS011;8723;51.502;6.918;2023-02-12T08:30:59;55.25;;;46.60;;
17214;SDS011;8723;51.502;6.918;2023-02-12T08:33:26;59.20;;;49.20;;
17214;SDS011;8723;51.502;6.918;2023-02-12T08:35:59;64.18;;;51.92;;
17214;SDS011;8723;51.502;6.918;2023-02-12T08:38:27;50.10;;;41.90;;
17214;SDS011;8723;51.502;6.918;2023-02-12T08:40:54;51.67;;;40.97;;
17214;SDS011;8723;51.502;6.918;2023-02-12T08:43:21;56.25;;;46.47;;
17214;SDS011;8723;51.502;6.918;2023-02-12T08:45:48;29.40;;;26.23;;
17214;SDS011;8723;51.502;6.918;2023-02-12T08:48:15;45.03;;;38.38;;
17214;SDS011;8723;51.502;6.918;2023-02-12T08:50:44;54.03;;;44.15;;
17214;SDS011;8723;51.502;6.918;2023-02-12T08:53:11;31.55;;;28.17;;
17214;SDS011;8723;51.502;6.918;2023-02-12T08:55:40;35.15;;;30.75;;
17214;SDS011;8723;51.502;6.918;2023-02-12T08:58:13;40.65;;;34.55;;
17214;SDS011;8723;51.502;6.918;2023-02-12T09:00:40;39.78;;;34.17;;
17214;SDS011;8723;51.502;6.918;2023-02-12T09:03:07;35.03;;;31.17;;
17214;SDS011;8723;51.502;6.918;2023-02-12T09:05:36;39.00;;;34.50;;
17214;SDS011;8723;51.502;6.918;2023-02-12T09:08:04;39.20;;;34.92;;
17214;SDS011;8723;51.502;6.918;2023-02-12T09:10:31;47.15;;;40.20;;
17214;SDS011;8723;51.502;6.918;2023-02-12T09:12:59;59.70;;;50.60;;
17214;SDS011;8723;51.502;6.918;2023-02-12T09:15:26;35.72;;;31.83;;
17214;SDS011;8723;51.502;6.918;2023-02-12T09:17:53;40.83;;;35.95;;
17214;SDS011;8723;51.502;6.918;2023-02-12T09:20:21;24.83;;;22.17;;
17214;SDS011;8723;51.502;6.918;2023-02-12T09:22:48;58.17;;;51.00;;
17214;SDS011;8723;51.502;6.918;2023-02-12T09:25:18;46.08;;;41.00;;
17214;SDS011;8723;51.502;6.918;2023-02-12T09:27:45;36.13;;;31.73;;
17214;SDS011;8723;51.502;6.918;2023-02-12T09:30:14;35.45;;;31.75;;
17214;SDS011;8723;51.502;6.918;2023-02-12T09:32:41;34.33;;;30.65;;
17214;SDS011;8723;51.502;6.918;2023-02-12T09:35:08;39.92;;;35.33;;
17214;SDS011;8723;51.502;6.918;2023-02-12T09:37:36;47.50;;;41.90;;
17214;SDS011;8723;51.502;6.918;2023-02-12T09:40:04;53.95;;;46.78;;
17214;SDS011;8723;51.502;6.918;2023-02-12T09:42:35;33.38;;;29.83;;
17214;SDS011;8723;51.502;6.918;2023-02-12T09:45:11;44.08;;;39.38;;
17214;SDS011;8723;51.502;6.918;2023-02-12T09:47:45;41.35;;;36.83;;
17214;SDS011;8723;51.502;6.918;2023-02-12T09:50:26;48.53;;;43.30;;
17214;SDS011;8723;51.502;6.918;2023-02-12T09:52:57;38.92;;;34.75;;
17214;SDS011;8723;51.502;6.918;2023-02-12T09:55:24;41.60;;;37.05;;
17214;SDS011;8723;51.502;6.918;2023-02-12T09:57:53;35.78;;;32.00;;
17214;SDS011;8723;51.502;6.918;2023-02-12T10:00:21;31.08;;;27.77;;
17214;SDS011;8723;51.502;6.918;2023-02-12T10:02:53;44.85;;;40.03;;
17214;SDS011;8723;51.502;6.918;2023-02-12T10:05:22;49.53;;;44.20;;
17214;SDS011;8723;51.502;6.918;2023-02-12T10:07:55;46.80;;;41.92;;
17214;SDS011;8723;51.502;6.918;2023-02-12T10:10:27;42.97;;;38.42;;
17214;SDS011;8723;51.502;6.918;2023-02-12T10:12:57;37.75;;;33.83;;
17214;SDS011;8723;51.502;6.918;2023-02-12T10:15:29;36.60;;;32.80;;
17214;SDS011;8723;51.502;6.918;2023-02-12T10:18:01;41.80;;;37.35;;
17214;SDS011;8723;51.502;6.918;2023-02-12T10:20:50;42.85;;;38.47;;
17214;SDS011;8723;51.502;6.918;2023-02-12T10:23:26;35.35;;;31.58;;
17214;SDS011;8723;51.502;6.918;2023-02-12T10:25:58;40.90;;;36.83;;
17214;SDS011;8723;51.502;6.918;2023-02-12T10:28:30;44.55;;;39.85;;
17214;SDS011;8723;51.502;6.918;2023-02-12T10:30:59;32.72;;;29.40;;
17214;SDS011;8723;51.502;6.918;2023-02-12T10:33:29;42.17;;;37.78;;
17214;SDS011;8723;51.502;6.918;2023-02-12T10:35:58;44.55;;;39.92;;
17214;SDS011;8723;51.502;6.918;2023-02-12T10:38:29;39.40;;;35.33;;
17214;SDS011;8723;51.502;6.918;2023-02-12T10:40:57;28.60;;;25.77;;
17214;SDS011;8723;51.502;6.918;2023-02-12T10:43:26;32.22;;;28.88;;
17214;SDS011;8723;51.502;6.918;2023-02-12T10:45:53;27.77;;;25.10;;
17214;SDS011;8723;51.502;6.918;2023-02-12T10:48:21;25.75;;;23.30;;
17214;SDS011;8723;51.502;6.918;2023-02-12T10:50:59;40.23;;;36.20;;
17214;SDS011;8723;51.502;6.918;2023-02-12T10:53:29;33.15;;;29.70;;
17214;SDS011;8723;51.502;6.918;2023-02-12T10:58:41;41.20;;;36.92;;
17214;SDS011;8723;51.502;6.918;2023-02-12T11:01:16;31.25;;;28.13;;
17214;SDS011;8723;51.502;6.918;2023-02-12T11:03:45;27.92;;;25.05;;
17214;SDS011;8723;51.502;6.918;2023-02-12T11:06:15;40.28;;;36.25;;
17214;SDS011;8723;51.502;6.918;2023-02-12T11:08:42;21.80;;;19.60;;
17214;SDS011;8723;51.502;6.918;2023-02-12T11:11:10;21.13;;;19.03;;
17214;SDS011;8723;51.502;6.918;2023-02-12T11:13:38;37.75;;;33.88;;
17214;SDS011;8723;51.502;6.918;2023-02-12T11:16:07;36.15;;;32.45;;
17214;SDS011;8723;51.502;6.918;2023-02-12T11:18:34;29.77;;;26.77;;
17214;SDS011;8723;51.502;6.918;2023-02-12T11:21:03;23.83;;;21.48;;
17214;SDS011;8723;51.502;6.918;2023-02-12T11:23:33;23.33;;;21.02;;
17214;SDS011;8723;51.502;6.918;2023-02-12T11:26:03;34.17;;;30.77;;
17214;SDS011;8723;51.502;6.918;2023-02-12T11:28:30;34.07;;;30.53;;
17214;SDS011;8723;51.502;6.918;2023-02-12T11:30:59;39.45;;;35.40;;
17214;SDS011;8723;51.502;6.918;2023-02-12T11:33:32;33.13;;;29.83;;
17214;SDS011;8723;51.502;6.918;2023-02-12T11:36:01;28.85;;;26.02;;
17214;SDS011;8723;51.502;6.918;2023-02-12T11:38:30;33.47;;;30.08;;
17214;SDS011;8723;51.502;6.918;2023-02-12T11:40:59;29.15;;;26.30;;
17214;SDS011;8723;51.502;6.918;2023-02-12T11:43:27;37.22;;;33.30;;
17214;SDS011;8723;51.502;6.918;2023-02-12T11:45:56;30.05;;;26.92;;
17214;SDS011;8723;51.502;6.918;2023-02-12T11:48:24;30.98;;;27.73;;
17214;SDS011;8723;51.502;6.918;2023-02-12T11:50:53;33.65;;;30.27;;
17214;SDS011;8723;51.502;6.918;2023-02-12T11:53:22;30.47;;;27.27;;
17214;SDS011;8723;51.502;6.918;2023-02-12T11:55:53;29.87;;;26.93;;
17214;SDS011;8723;51.502;6.918;2023-02-12T11:58:23;25.87;;;23.30;;
17214;SDS011;8723;51.502;6.918;2023-02-12T12:00:52;24.55;;;22.13;;
17214;SDS011;8723;51.502;6.918;2023-02-12T12:03:21;33.30;;;29.95;;
17214;SDS011;8723;51.502;6.918;2023-02-12T12:05:49;24.27;;;21.87;;
17214;SDS011;8723;51.502;6.918;2023-02-12T12:08:19;30.55;;;27.55;;
17214;SDS011;8723;51.502;6.918;2023-02-12T12:10:48;30.15;;;27.05;;
17214;SDS011;8723;51.502;6.918;2023-02-12T12:13:18;24.02;;;21.73;;
17214;SDS011;8723;51.502;6.918;2023-02-12T12:15:49;26.45;;;23.75;;
17214;SDS011;8723;51.502;6.918;2023-02-12T12:18:40;31.02;;;27.83;;
17214;SDS011;8723;51.502;6.918;2023-02-12T12:21:27;30.42;;;27.52;;
17214;SDS011;8723;51.502;6.918;2023-02-12T12:23:57;22.05;;;19.95;;
17214;SDS011;8723;51.502;6.918;2023-02-12T12:26:27;24.23;;;21.83;;
17214;SDS011;8723;51.502;6.918;2023-02-12T12:28:56;34.72;;;31.17;;
17214;SDS011;8723;51.502;6.918;2023-02-12T12:31:28;30.70;;;27.50;;
17214;SDS011;8723;51.502;6.918;2023-02-12T12:33:59;25.63;;;23.23;;
17214;SDS011;8723;51.502;6.918;2023-02-12T12:36:36;29.77;;;26.83;;
17214;SDS011;8723;51.502;6.918;2023-02-12T12:39:11;30.70;;;27.52;;
17214;SDS011;8723;51.502;6.918;2023-02-12T12:41:45;28.90;;;25.83;;
17214;SDS011;8723;51.502;6.918;2023-02-12T12:44:18;23.83;;;21.42;;
17214;SDS011;8723;51.502;6.918;2023-02-12T12:46:57;29.92;;;26.92;;
17214;SDS011;8723;51.502;6.918;2023-02-12T12:49:33;22.75;;;20.52;;
17214;SDS011;8723;51.502;6.918;2023-02-12T12:52:11;31.35;;;28.25;;
17214;SDS011;8723;51.502;6.918;2023-02-12T12:54:48;32.83;;;29.40;;
17214;SDS011;8723;51.502;6.918;2023-02-12T12:57:18;26.50;;;23.80;;
17214;SDS011;8723;51.502;6.918;2023-02-12T12:59:52;29.98;;;26.80;;
17214;SDS011;8723;51.502;6.918;2023-02-12T13:02:34;26.88;;;24.13;;
17214;SDS011;8723;51.502;6.918;2023-02-12T13:05:17;21.55;;;19.45;;
17214;SDS011;8723;51.502;6.918;2023-02-12T13:07:48;28.45;;;25.52;;
17214;SDS011;8723;51.502;6.918;2023-02-12T13:10:18;27.23;;;24.38;;
17214;SDS011;8723;51.502;6.918;2023-02-12T13:15:44;35.78;;;32.13;;
17214;SDS011;8723;51.502;6.918;2023-02-12T13:18:17;35.97;;;32.13;;
17214;SDS011;8723;51.502;6.918;2023-02-12T13:20:47;26.05;;;23.55;;
17214;SDS011;8723;51.502;6.918;2023-02-12T13:23:15;37.92;;;33.97;;
17214;SDS011;8723;51.502;6.918;2023-02-12T13:25:46;34.17;;;30.77;;
17214;SDS011;8723;51.502;6.918;2023-02-12T13:28:14;35.78;;;32.08;;
17214;SDS011;8723;51.502;6.918;2023-02-12T13:30:44;33.50;;;30.17;;
17214;SDS011;8723;51.502;6.918;2023-02-12T13:33:14;35.55;;;32.00;;
17214;SDS011;8723;51.502;6.918;2023-02-12T13:35:45;35.60;;;31.90;;
17214;SDS011;8723;51.502;6.918;2023-02-12T13:38:14;37.60;;;33.63;;
17214;SDS011;8723;51.502;6.918;2023-02-12T13:40:43;30.25;;;27.25;;
17214;SDS011;8723;51.502;6.918;2023-02-12T13:43:14;35.40;;;31.77;;
17214;SDS011;8723;51.502;6.918;2023-02-12T13:45:49;24.38;;;21.88;;
17214;SDS011;8723;51.502;6.918;2023-02-12T13:48:35;34.90;;;31.30;;
17214;SDS011;8723;51.502;6.918;2023-02-12T13:51:09;30.55;;;27.42;;
17214;SDS011;8723;51.502;6.918;2023-02-12T13:53:44;27.48;;;24.67;;
17214;SDS011;8723;51.502;6.918;2023-02-12T13:56:17;23.97;;;21.53;;
17214;SDS011;8723;51.502;6.918;2023-02-12T13:58:49;31.40;;;28.30;;
17214;SDS011;8723;51.502;6.918;2023-02-12T14:04:12;34.40;;;30.65;;
17214;SDS011;8723;51.502;6.918;2023-02-12T14:06:51;30.05;;;27.05;;
17214;SDS011;8723;51.502;6.918;2023-02-12T14:09:20;29.23;;;26.25;;
17214;SDS011;8723;51.502;6.918;2023-02-12T14:11:49;27.40;;;24.75;;
17214;SDS011;8723;51.502;6.918;2023-02-12T14:14:22;31.92;;;28.73;;
17214;SDS011;8723;51.502;6.918;2023-02-12T14:16:50;24.35;;;21.85;;
17214;SDS011;8723;51.502;6.918;2023-02-12T14:19:36;25.13;;;22.60;;
17214;SDS011;8723;51.502;6.918;2023-02-12T14:22:11;25.00;;;22.60;;
17214;SDS011;8723;51.502;6.918;2023-02-12T14:27:28;32.88;;;29.27;;
17214;SDS011;8723;51.502;6.918;2023-02-12T14:30:00;19.77;;;17.88;;
17214;SDS011;8723;51.502;6.918;2023-02-12T14:32:55;23.60;;;21.17;;
17214;SDS011;8723;51.502;6.918;2023-02-12T14:35:32;30.85;;;27.25;;
17214;SDS011;8723;51.502;6.918;2023-02-12T14:37:59;33.83;;;30.20;;
17214;SDS011;8723;51.502;6.918;2023-02-12T14:40:40;32.00;;;28.67;;
17214;SDS011;8723;51.502;6.918;2023-02-12T14:43:29;28.40;;;25.50;;
17214;SDS011;8723;51.502;6.918;2023-02-12T14:45:57;29.00;;;26.05;;
17214;SDS011;8723;51.502;6.918;2023-02-12T14:48:37;31.85;;;28.65;;
17214;SDS011;8723;51.502;6.918;2023-02-12T14:51:05;28.23;;;25.27;;
17214;SDS011;8723;51.502;6.918;2023-02-12T14:53:34;27.07;;;24.33;;
17214;SDS011;8723;51.502;6.918;2023-02-12T14:56:03;33.72;;;30.15;;
17214;SDS011;8723;51.502;6.918;2023-02-12T14:58:34;28.38;;;25.42;;
17214;SDS011;8723;51.502;6.918;2023-02-12T15:01:02;31.77;;;28.48;;
17214;SDS011;8723;51.502;6.918;2023-02-12T15:03:31;32.78;;;29.40;;
17214;SDS011;8723;51.502;6.918;2023-02-12T15:06:02;34.15;;;30.60;;